Observation data for Olton on 01/19/2019      Previous  Date  Next       Current Mesonet Observations  Soil Data  Daily Summary Page  Observations in Plain Language
KONS 190605Z 34018KT 00/M01 A3006 RMK A01 T00011013  RH  091%=      5-min Rain = 0
KONS 190610Z 33017KT 00/M01 A3006 RMK A01 T00021012  RH  092%=      5-min Rain = 0
KONS 190615Z 34021G27KT 00/M01 A3006 RMK A01 T00031011  RH  092%=      5-min Rain = 0
KONS 190620Z 34024G30KT 00/M01 A3007 RMK A01 T00031013  RH  090%=      5-min Rain = 0
KONS 190625Z 34024G33KT 00/M02 A3007 RMK A01 T00031017  RH  087%=      5-min Rain = 0
KONS 190630Z 34023G31KT 00/M02 A3007 RMK A01 T00021020  RH  086%=      5-min Rain = 0
KONS 190635Z 34023G30KT 00/M02 A3007 RMK A01 T00011022  RH  085%=      5-min Rain = 0
KONS 190640Z 34022G29KT 00/M02 A3008 RMK A01 T00011023  RH  085%=      5-min Rain = 0
KONS 190645Z 34020G28KT M00/M02 A3008 RMK A01 T10011023  RH  086%=      5-min Rain = 0
KONS 190650Z 34022G28KT M00/M02 A3008 RMK A01 T10011023  RH  086%=      5-min Rain = 0
KONS 190655Z 34020G27KT M00/M02 A3008 RMK A01 T10021024  RH  086%=      5-min Rain = 0
KONS 190700Z 34021G27KT M00/M02 A3008 RMK A01 T10021024  RH  086%=      5-min Rain = 0
KONS 190705Z 34023G29KT M00/M02 A3008 RMK A01 T10021024  RH  086%=      5-min Rain = 0
KONS 190710Z 34027G35KT M00/M03 A3008 RMK A01 T10011025  RH  085%=      5-min Rain = 0
KONS 190715Z 34026G37KT M00/M03 A3008 RMK A01 T10011027  RH  084%=      5-min Rain = 0
KONS 190720Z 34026G34KT M00/M03 A3008 RMK A01 T10021028  RH  083%=      5-min Rain = 0
KONS 190725Z 34024G30KT M00/M03 A3008 RMK A01 T10031028  RH  084%=      5-min Rain = 0
KONS 190730Z 34025G30KT M00/M03 A3008 RMK A01 T10041027  RH  085%=      5-min Rain = 0
KONS 190735Z 34026G34KT M00/M03 A3008 RMK A01 T10041028  RH  085%=      5-min Rain = 0
KONS 190740Z 34025G34KT M00/M03 A3008 RMK A01 T10041030  RH  083%=      5-min Rain = 0
KONS 190745Z 34025G31KT M01/M03 A3008 RMK A01 T10051030  RH  084%=      5-min Rain = 0
KONS 190750Z 34023G30KT M01/M03 A3009 RMK A01 T10061031  RH  084%=      5-min Rain = 0
KONS 190755Z 34024G31KT M01/M03 A3009 RMK A01 T10071031  RH  084%=      5-min Rain = 0
KONS 190800Z 34021G28KT M01/M03 A3009 RMK A01 T10081031  RH  085%=      5-min Rain = 0
KONS 190805Z 33020G28KT M01/M03 A301 RMK A01 T10081031  RH  085%=      5-min Rain = 0
KONS 190810Z 33021G27KT M01/M03 A301 RMK A01 T10081031  RH  085%=      5-min Rain = 0
KONS 190815Z 33021G27KT M01/M03 A3011 RMK A01 T10081032  RH  085%=      5-min Rain = 0
KONS 190820Z 33021G28KT M01/M03 A3011 RMK A01 T10081032  RH  085%=      5-min Rain = 0
KONS 190825Z 33023G30KT M01/M03 A3011 RMK A01 T10081033  RH  084%=      5-min Rain = 0
KONS 190830Z 33023G30KT M01/M04 A3011 RMK A01 T10081035  RH  083%=      5-min Rain = 0
KONS 190835Z 33025G31KT M01/M04 A3011 RMK A01 T10081036  RH  082%=      5-min Rain = 0
KONS 190840Z 33025G33KT M01/M04 A3012 RMK A01 T10081038  RH  081%=      5-min Rain = 0
KONS 190845Z 33024G29KT M01/M04 A3012 RMK A01 T10101039  RH  082%=      5-min Rain = 0
KONS 190850Z 33022G27KT M01/M04 A3012 RMK A01 T10121039  RH  083%=      5-min Rain = 0
KONS 190855Z 34021G26KT M01/M04 A3012 RMK A01 T10141039  RH  084%=      5-min Rain = 0
KONS 190900Z 33019G24KT M02/M04 A3012 RMK A01 T10151039  RH  084%=      5-min Rain = 0
KONS 190905Z 33018G23KT M02/M04 A3013 RMK A01 T10161039  RH  085%=      5-min Rain = 0
KONS 190910Z 33016G22KT M02/M04 A3013 RMK A01 T10161038  RH  086%=      5-min Rain = 0
KONS 190915Z 32015G20KT M02/M04 A3013 RMK A01 T10161038  RH  086%=      5-min Rain = 0
KONS 190920Z 32014KT M02/M04 A3013 RMK A01 T10171037  RH  087%=      5-min Rain = 0
KONS 190925Z 33016KT M02/M04 A3013 RMK A01 T10161036  RH  087%=      5-min Rain = 0
KONS 190930Z 32015G20KT M02/M04 A3014 RMK A01 T10151036  RH  087%=      5-min Rain = 0
KONS 190935Z 32016G21KT M01/M04 A3014 RMK A01 T10141035  RH  087%=      5-min Rain = 0
KONS 190940Z 33015KT M01/M04 A3015 RMK A01 T10141035  RH  086%=      5-min Rain = 0
KONS 190945Z 33015G20KT M01/M04 A3015 RMK A01 T10141035  RH  086%=      5-min Rain = 0
KONS 190950Z 33014G21KT M01/M04 A3016 RMK A01 T10141036  RH  086%=      5-min Rain = 0
KONS 190955Z 33015KT M01/M04 A3016 RMK A01 T10141035  RH  086%=      5-min Rain = 0
KONS 191000Z 32013G18KT M01/M04 A3016 RMK A01 T10131036  RH  086%=      5-min Rain = 0
KONS 191005Z 32012KT M01/M04 A3017 RMK A01 T10141036  RH  086%=      5-min Rain = 0
KONS 191010Z 32011KT M02/M04 A3017 RMK A01 T10151037  RH  086%=      5-min Rain = 0
KONS 191015Z 31010G15KT M02/M04 A3017 RMK A01 T10161037  RH  086%=      5-min Rain = 0
KONS 191020Z 31010KT M02/M04 A3018 RMK A01 T10161037  RH  087%=      5-min Rain = 0
KONS 191025Z 31010KT M02/M04 A3018 RMK A01 T10161037  RH  087%=      5-min Rain = 0
KONS 191030Z 31010KT M02/M04 A3018 RMK A01 T10161037  RH  087%=      5-min Rain = 0
KONS 191035Z 32009KT M02/M04 A3019 RMK A01 T10171038  RH  086%=      5-min Rain = 0
KONS 191040Z 32009KT M02/M04 A3019 RMK A01 T10171038  RH  087%=      5-min Rain = 0
KONS 191045Z 32008KT M02/M04 A3019 RMK A01 T10181039  RH  087%=      5-min Rain = 0
KONS 191050Z 32008KT M02/M04 A3019 RMK A01 T10191039  RH  087%=      5-min Rain = 0
KONS 191055Z 31008KT M02/M04 A3019 RMK A01 T10201040  RH  087%=      5-min Rain = 0
KONS 191100Z 32008KT M02/M04 A3019 RMK A01 T10211041  RH  087%=      5-min Rain = 0
KONS 191105Z 32008KT M02/M04 A3019 RMK A01 T10221041  RH  088%=      5-min Rain = 0
KONS 191110Z 32009KT M02/M04 A3018 RMK A01 T10231042  RH  088%=      5-min Rain = 0
KONS 191115Z 32009KT M02/M04 A3018 RMK A01 T10241041  RH  089%=      5-min Rain = 0
KONS 191120Z 32009KT M02/M04 A3018 RMK A01 T10231041  RH  089%=      5-min Rain = 0
KONS 191125Z 32009KT M02/M04 A3018 RMK A01 T10231041  RH  089%=      5-min Rain = 0
KONS 191130Z 32008KT M03/M04 A3018 RMK A01 T10251043  RH  089%=      5-min Rain = 0
KONS 191135Z 31008KT M03/M04 A3018 RMK A01 T10271044  RH  089%=      5-min Rain = 0
KONS 191140Z 31007KT M03/M05 A3018 RMK A01 T10281045  RH  089%=      5-min Rain = 0
KONS 191145Z 31006KT M03/M05 A3018 RMK A01 T10311048  RH  089%=      5-min Rain = 0
KONS 191150Z 31006KT M03/M05 A3018 RMK A01 T10331050  RH  089%=      5-min Rain = 0
KONS 191155Z 31006KT M04/M05 A3019 RMK A01 T10361053  RH  090%=      5-min Rain = 0
KONS 191200Z 30006KT M04/M05 A3019 RMK A01 T10391054  RH  090%=      5-min Rain = 0
KONS 191205Z 30006KT M04/M06 A3018 RMK A01 T10401055  RH  090%=      5-min Rain = 0
KONS 191210Z 30006KT M04/M06 A3019 RMK A01 T10411055  RH  091%=      5-min Rain = 0
KONS 191215Z 30006KT M04/M05 A3019 RMK A01 T10401054  RH  091%=      5-min Rain = 0
KONS 191220Z 30005KT M04/M05 A3019 RMK A01 T10391052  RH  092%=      5-min Rain = 0
KONS 191225Z 31006KT M04/M05 A3019 RMK A01 T10381050  RH  092%=      5-min Rain = 0
KONS 191230Z 31007KT M03/M05 A3019 RMK A01 T10321045  RH  092%=      5-min Rain = 0
KONS 191235Z 31007KT M03/M05 A302 RMK A01 T10301045  RH  090%=      5-min Rain = 0
KONS 191240Z 31007KT M03/M05 A302 RMK A01 T10301046  RH  090%=      5-min Rain = 0
KONS 191245Z 31007KT M03/M05 A3021 RMK A01 T10301048  RH  089%=      5-min Rain = 0
KONS 191250Z 30007KT M03/M05 A3021 RMK A01 T10311049  RH  089%=      5-min Rain = 0
KONS 191255Z 30008KT M03/M05 A3021 RMK A01 T10301048  RH  089%=      5-min Rain = 0
KONS 191300Z 30008KT M03/M05 A3021 RMK A01 T10301048  RH  088%=      5-min Rain = 0
KONS 191305Z 31009KT M03/M05 A3022 RMK A01 T10301048  RH  088%=      5-min Rain = 0
KONS 191310Z 31009KT M03/M05 A3022 RMK A01 T10281047  RH  088%=      5-min Rain = 0
KONS 191315Z 31010KT M03/M04 A3022 RMK A01 T10251043  RH  088%=      5-min Rain = 0
KONS 191320Z 31009KT M02/M04 A3022 RMK A01 T10221042  RH  087%=      5-min Rain = 0
KONS 191325Z 31009KT M02/M04 A3023 RMK A01 T10221042  RH  087%=      5-min Rain = 0
KONS 191330Z 31012KT M02/M04 A3023 RMK A01 T10191040  RH  087%=      5-min Rain = 0
KONS 191335Z 31012KT M02/M04 A3023 RMK A01 T10161039  RH  086%=      5-min Rain = 0
KONS 191340Z 31013KT M01/M04 A3023 RMK A01 T10141038  RH  085%=      5-min Rain = 0
KONS 191345Z 31013KT M01/M04 A3023 RMK A01 T10131038  RH  084%=      5-min Rain = 0
KONS 191350Z 31013KT M01/M04 A3023 RMK A01 T10121038  RH  084%=      5-min Rain = 0
KONS 191355Z 31013KT M01/M04 A3023 RMK A01 T10121037  RH  084%=      5-min Rain = 0
KONS 191400Z 31013KT M01/M04 A3024 RMK A01 T10111037  RH  083%=      5-min Rain = 0
KONS 191405Z 31012KT M01/M04 A3024 RMK A01 T10111038  RH  083%=      5-min Rain = 0
KONS 191410Z 31012KT M01/M04 A3024 RMK A01 T10121038  RH  084%=      5-min Rain = 0
KONS 191415Z 31012KT M01/M04 A3025 RMK A01 T10121037  RH  084%=      5-min Rain = 0
KONS 191420Z 31012KT M01/M04 A3025 RMK A01 T10111036  RH  084%=      5-min Rain = 0
KONS 191425Z 31012KT M01/M04 A3025 RMK A01 T10091035  RH  083%=      5-min Rain = 0
KONS 191430Z 30011KT M01/M04 A3025 RMK A01 T10081035  RH  083%=      5-min Rain = 0
KONS 191435Z 30011KT M01/M03 A3026 RMK A01 T10091034  RH  084%=      5-min Rain = 0
KONS 191440Z 31012KT M01/M03 A3026 RMK A01 T10091033  RH  084%=      5-min Rain = 0
KONS 191445Z 30013KT M01/M03 A3026 RMK A01 T10071032  RH  084%=      5-min Rain = 0
KONS 191450Z 31013KT M00/M03 A3026 RMK A01 T10041030  RH  084%=      5-min Rain = 0
KONS 191455Z 30013KT M00/M03 A3027 RMK A01 T10011028  RH  082%=      5-min Rain = 0
KONS 191500Z 30013KT 00/M03 A3027 RMK A01 T00021027  RH  082%=      5-min Rain = 0
KONS 191505Z 31013KT 01/M03 A3027 RMK A01 T00051026  RH  081%=      5-min Rain = 0
KONS 191510Z 31013KT 01/M03 A3028 RMK A01 T00071025  RH  080%=      5-min Rain = 0
KONS 191515Z 31013G18KT 01/M02 A3028 RMK A01 T00111023  RH  079%=      5-min Rain = 0
KONS 191520Z 31013KT 01/M02 A3028 RMK A01 T00131022  RH  079%=      5-min Rain = 0
KONS 191525Z 31013KT 02/M02 A3028 RMK A01 T00151020  RH  078%=      5-min Rain = 0
KONS 191530Z 31014KT 02/M02 A3029 RMK A01 T00161020  RH  078%=      5-min Rain = 0
KONS 191535Z 31012KT 02/M02 A3029 RMK A01 T00181017  RH  078%=      5-min Rain = 0
KONS 191540Z 31014KT 02/M02 A3029 RMK A01 T00201018  RH  077%=      5-min Rain = 0
KONS 191545Z 31013KT 02/M02 A3029 RMK A01 T00231017  RH  076%=      5-min Rain = 0
KONS 191550Z 32014KT 03/M02 A3029 RMK A01 T00251017  RH  075%=      5-min Rain = 0
KONS 191555Z 32015KT 03/M02 A3029 RMK A01 T00281017  RH  073%=      5-min Rain = 0
KONS 191600Z 32014KT 03/M02 A3029 RMK A01 T00311015  RH  073%=      5-min Rain = 0
KONS 191605Z 32015KT 03/M02 A3029 RMK A01 T00331015  RH  071%=      5-min Rain = 0
KONS 191610Z 33016KT 03/M02 A303 RMK A01 T00341018  RH  070%=      5-min Rain = 0
KONS 191615Z 33015G23KT 04/M01 A303 RMK A01 T00371014  RH  070%=      5-min Rain = 0
KONS 191620Z 33016KT 04/M02 A303 RMK A01 T00391016  RH  068%=      5-min Rain = 0
KONS 191625Z 33017G23KT 04/M02 A303 RMK A01 T00401015  RH  068%=      5-min Rain = 0
KONS 191630Z 33017G23KT 04/M01 A303 RMK A01 T00431013  RH  068%=      5-min Rain = 0
KONS 191635Z 34017KT 04/M02 A303 RMK A01 T00431015  RH  066%=      5-min Rain = 0
KONS 191640Z 34018KT 05/M02 A303 RMK A01 T00451017  RH  065%=      5-min Rain = 0
KONS 191645Z 34018KT 05/M02 A303 RMK A01 T00471016  RH  064%=      5-min Rain = 0
KONS 191650Z 34017G23KT 05/M02 A303 RMK A01 T00491016  RH  063%=      5-min Rain = 0
KONS 191655Z 34017KT 05/M02 A303 RMK A01 T00511016  RH  063%=      5-min Rain = 0
KONS 191700Z 34017G22KT 05/M02 A3031 RMK A01 T00511017  RH  062%=      5-min Rain = 0
KONS 191705Z 34018G23KT 05/M02 A3031 RMK A01 T00531016  RH  062%=      5-min Rain = 0
KONS 191710Z 35018G25KT 06/M02 A3031 RMK A01 T00551017  RH  061%=      5-min Rain = 0
KONS 191715Z 35018G23KT 06/M02 A3031 RMK A01 T00571017  RH  059%=      5-min Rain = 0
KONS 191720Z 35021KT 06/M02 A3031 RMK A01 T00571021  RH  058%=      5-min Rain = 0
KONS 191725Z 35019G25KT 06/M02 A3031 RMK A01 T00581020  RH  058%=      5-min Rain = 0
KONS 191730Z 34019KT 06/M02 A3031 RMK A01 T00591019  RH  058%=      5-min Rain = 0
KONS 191735Z 34020G25KT 06/M02 A3031 RMK A01 T00611021  RH  056%=      5-min Rain = 0
KONS 191740Z 34019G24KT 06/M02 A3031 RMK A01 T00611021  RH  056%=      5-min Rain = 0
KONS 191745Z 34017G24KT 07/M02 A3031 RMK A01 T00661017  RH  056%=      5-min Rain = 0
KONS 191750Z 34019G24KT 07/M02 A3031 RMK A01 T00681020  RH  054%=      5-min Rain = 0
KONS 191755Z 34018G23KT 07/M02 A3031 RMK A01 T00701018  RH  054%=      5-min Rain = 0
KONS 191800Z 34018G25KT 07/M02 A3031 RMK A01 T00711018  RH  054%=      5-min Rain = 0
KONS 191805Z 34018KT 07/M02 A3031 RMK A01 T00741018  RH  053%=      5-min Rain = 0
KONS 191810Z 35020G25KT 08/M02 A303 RMK A01 T00751020  RH  051%=      5-min Rain = 0
KONS 191815Z 35019G26KT 08/M02 A303 RMK A01 T00771020  RH  051%=      5-min Rain = 0
KONS 191820Z 35019G24KT 08/M02 A303 RMK A01 T00771020  RH  051%=      5-min Rain = 0
KONS 191825Z 34019G25KT 08/M02 A303 RMK A01 T00801019  RH  050%=      5-min Rain = 0
KONS 191830Z 35021KT 08/M02 A303 RMK A01 T00781022  RH  050%=      5-min Rain = 0
KONS 191835Z 35021KT 08/M02 A303 RMK A01 T00781024  RH  049%=      5-min Rain = 0
KONS 191840Z 35019G24KT 08/M02 A303 RMK A01 T00801020  RH  050%=      5-min Rain = 0
KONS 191845Z 35019G25KT 08/M02 A303 RMK A01 T00811019  RH  050%=      5-min Rain = 0
KONS 191850Z 35021KT 08/M02 A3029 RMK A01 T00801024  RH  048%=      5-min Rain = 0
KONS 191855Z 35019KT 08/M02 A3029 RMK A01 T00811022  RH  049%=      5-min Rain = 0
KONS 191900Z 35021KT 08/M03 A3029 RMK A01 T00821025  RH  048%=      5-min Rain = 0
KONS 191905Z 34020G26KT 08/M03 A3029 RMK A01 T00801025  RH  048%=      5-min Rain = 0
KONS 191910Z 35018KT 08/M02 A3029 RMK A01 T00831023  RH  048%=      5-min Rain = 0
KONS 191915Z 35019G24KT 09/M02 A3028 RMK A01 T00861024  RH  046%=      5-min Rain = 0
KONS 191920Z 36019G24KT 09/M03 A3028 RMK A01 T00851026  RH  046%=      5-min Rain = 0
KONS 191925Z 36019G25KT 08/M03 A3028 RMK A01 T00841026  RH  046%=      5-min Rain = 0
KONS 191930Z 35019G25KT 09/M03 A3028 RMK A01 T00851026  RH  046%=      5-min Rain = 0
KONS 191935Z 35019G25KT 09/M03 A3028 RMK A01 T00911026  RH  044%=      5-min Rain = 0
KONS 191940Z 36020KT 09/M03 A3027 RMK A01 T00881028  RH  044%=      5-min Rain = 0
KONS 191945Z 36020KT 09/M03 A3027 RMK A01 T00881026  RH  045%=      5-min Rain = 0
KONS 191950Z 35018G23KT 09/M03 A3027 RMK A01 T00891027  RH  044%=      5-min Rain = 0
KONS 191955Z 35017G22KT 09/M03 A3027 RMK A01 T00911025  RH  045%=      5-min Rain = 0
KONS 192000Z 35017G22KT 09/M03 A3027 RMK A01 T00901025  RH  045%=      5-min Rain = 0
KONS 192005Z 35017G22KT 09/M03 A3027 RMK A01 T00901025  RH  045%=      5-min Rain = 0
KONS 192010Z 34016G21KT 09/M03 A3026 RMK A01 T00931026  RH  044%=      5-min Rain = 0
KONS 192015Z 34015G20KT 09/M03 A3026 RMK A01 T00921025  RH  044%=      5-min Rain = 0
KONS 192020Z 35016KT 09/M03 A3026 RMK A01 T00941027  RH  043%=      5-min Rain = 0
KONS 192025Z 34016KT 09/M03 A3026 RMK A01 T00941028  RH  043%=      5-min Rain = 0
KONS 192030Z 34015G20KT 10/M03 A3026 RMK A01 T00951028  RH  043%=      5-min Rain = 0
KONS 192035Z 34014KT 10/M03 A3026 RMK A01 T00961027  RH  042%=      5-min Rain = 0
KONS 192040Z 35016G21KT 09/M03 A3026 RMK A01 T00931029  RH  043%=      5-min Rain = 0
KONS 192045Z 33014G19KT 09/M03 A3026 RMK A01 T00941026  RH  043%=      5-min Rain = 0
KONS 192050Z 34014KT 10/M03 A3026 RMK A01 T00951027  RH  043%=      5-min Rain = 0
KONS 192055Z 34013G18KT 10/M03 A3026 RMK A01 T00951026  RH  043%=      5-min Rain = 0
KONS 192100Z 34013G20KT 10/M03 A3026 RMK A01 T00951025  RH  043%=      5-min Rain = 0
KONS 192105Z 33013G18KT 10/M03 A3026 RMK A01 T00951027  RH  043%=      5-min Rain = 0
KONS 192110Z 33013KT 10/M03 A3026 RMK A01 T00971025  RH  043%=      5-min Rain = 0
KONS 192115Z 33013G18KT 10/M03 A3026 RMK A01 T00961025  RH  043%=      5-min Rain = 0
KONS 192120Z 32012G17KT 10/M03 A3026 RMK A01 T00961026  RH  043%=      5-min Rain = 0
KONS 192125Z 34010KT 10/M03 A3026 RMK A01 T00951025  RH  044%=      5-min Rain = 0
KONS 192130Z 33014KT 10/M02 A3026 RMK A01 T00951024  RH  044%=      5-min Rain = 0
KONS 192135Z 32010G15KT 10/M02 A3026 RMK A01 T00961023  RH  044%=      5-min Rain = 0
KONS 192140Z 32011G16KT 10/M02 A3026 RMK A01 T00971023  RH  043%=      5-min Rain = 0
KONS 192145Z 32011G17KT 10/M02 A3026 RMK A01 T00961022  RH  044%=      5-min Rain = 0
KONS 192150Z 32010G17KT 10/M02 A3026 RMK A01 T00971021  RH  044%=      5-min Rain = 0
KONS 192155Z 34009G14KT 10/M02 A3026 RMK A01 T00961020  RH  045%=      5-min Rain = 0
KONS 192200Z 34010KT 10/M02 A3026 RMK A01 T00961020  RH  044%=      5-min Rain = 0
KONS 192205Z 33009KT 10/M02 A3026 RMK A01 T00961020  RH  045%=      5-min Rain = 0
KONS 192210Z 33009KT 10/M02 A3025 RMK A01 T00971021  RH  044%=      5-min Rain = 0
KONS 192215Z 33009KT 10/M02 A3025 RMK A01 T00951022  RH  044%=      5-min Rain = 0
KONS 192220Z 32010KT 10/M02 A3025 RMK A01 T00961022  RH  044%=      5-min Rain = 0
KONS 192225Z 32008KT 10/M02 A3025 RMK A01 T00951020  RH  045%=      5-min Rain = 0
KONS 192230Z 33007KT 10/M02 A3025 RMK A01 T00971021  RH  044%=      5-min Rain = 0
KONS 192235Z 33009KT 10/M02 A3025 RMK A01 T00971022  RH  044%=      5-min Rain = 0
KONS 192240Z 33008KT 10/M02 A3025 RMK A01 T00951023  RH  044%=      5-min Rain = 0
KONS 192245Z 32008KT 10/M02 A3026 RMK A01 T00961021  RH  044%=      5-min Rain = 0
KONS 192250Z 33008KT 10/M02 A3025 RMK A01 T00951021  RH  045%=      5-min Rain = 0
KONS 192255Z 35007KT 09/M02 A3025 RMK A01 T00941021  RH  045%=      5-min Rain = 0
KONS 192300Z 33005KT 09/M02 A3025 RMK A01 T00931022  RH  045%=      5-min Rain = 0
KONS 192305Z 34006KT 09/M02 A3025 RMK A01 T00931021  RH  045%=      5-min Rain = 0
KONS 192310Z 34006KT 09/M02 A3025 RMK A01 T00921021  RH  046%=      5-min Rain = 0
KONS 192315Z 33006KT 09/M02 A3025 RMK A01 T00911021  RH  046%=      5-min Rain = 0
KONS 192320Z 34006KT 09/M02 A3025 RMK A01 T00901023  RH  046%=      5-min Rain = 0
KONS 192325Z 34006KT 09/M02 A3025 RMK A01 T00881022  RH  046%=      5-min Rain = 0
KONS 192330Z 35005KT 09/M02 A3025 RMK A01 T00871020  RH  048%=      5-min Rain = 0
KONS 192335Z 35005KT 08/M02 A3025 RMK A01 T00841020  RH  048%=      5-min Rain = 0
KONS 192340Z 36005KT 08/M02 A3025 RMK A01 T00811020  RH  050%=      5-min Rain = 0
KONS 192345Z 02005KT 08/M02 A3026 RMK A01 T00781019  RH  051%=      5-min Rain = 0
KONS 192350Z 02004KT 07/M02 A3026 RMK A01 T00721015  RH  054%=      5-min Rain = 0
KONS 192355Z 02004KT 07/M02 A3026 RMK A01 T00681017  RH  055%=      5-min Rain = 0
KONS 200000Z 03004KT 07/M02 A3025 RMK A01 T00651020  RH  055%=      5-min Rain = 0
KONS 200005Z 03005KT 06/M02 A3025 RMK A01 T00631021  RH  055%=      5-min Rain = 0
KONS 200010Z 03006KT 06/M02 A3025 RMK A01 T00601023  RH  056%=      5-min Rain = 0
KONS 200015Z 03006KT 06/M03 A3025 RMK A01 T00571025  RH  056%=      5-min Rain = 0
KONS 200020Z 03005KT 05/M03 A3025 RMK A01 T00541026  RH  057%=      5-min Rain = 0
KONS 200025Z 04005KT 05/M03 A3025 RMK A01 T00511025  RH  058%=      5-min Rain = 0
KONS 200030Z 05004KT 05/M03 A3025 RMK A01 T00491027  RH  059%=      5-min Rain = 0
KONS 200035Z 05005KT 05/M03 A3026 RMK A01 T00471026  RH  060%=      5-min Rain = 0
KONS 200040Z 06005KT 04/M03 A3025 RMK A01 T00441031  RH  059%=      5-min Rain = 0
KONS 200045Z 07005KT 03/M03 A3026 RMK A01 T00341029  RH  064%=      5-min Rain = 0
KONS 200050Z 08005KT 03/M03 A3026 RMK A01 T00341031  RH  063%=      5-min Rain = 0
KONS 200055Z 08005KT 03/M03 A3026 RMK A01 T00291030  RH  065%=      5-min Rain = 0
KONS 200100Z 06006KT 04/M03 A3026 RMK A01 T00371027  RH  064%=      5-min Rain = 0
KONS 200105Z 06007KT 04/M03 A3025 RMK A01 T00391030  RH  061%=      5-min Rain = 0
KONS 200110Z 06007KT 03/M03 A3025 RMK A01 T00341032  RH  062%=      5-min Rain = 0
KONS 200115Z 07007KT 03/M03 A3025 RMK A01 T00291031  RH  065%=      5-min Rain = 0
KONS 200120Z 08007KT 03/M03 A3025 RMK A01 T00271032  RH  066%=      5-min Rain = 0
KONS 200125Z 09007KT 02/M03 A3025 RMK A01 T00231032  RH  067%=      5-min Rain = 0
KONS 200130Z 08007KT 02/M04 A3025 RMK A01 T00181036  RH  068%=      5-min Rain = 0
KONS 200135Z 08007KT 02/M03 A3024 RMK A01 T00181034  RH  069%=      5-min Rain = 0
KONS 200140Z 08009KT 02/M04 A3024 RMK A01 T00171035  RH  069%=      5-min Rain = 0
KONS 200145Z 09009KT 01/M04 A3024 RMK A01 T00141035  RH  071%=      5-min Rain = 0
KONS 200150Z 10008KT 01/M04 A3024 RMK A01 T00101036  RH  072%=      5-min Rain = 0
KONS 200155Z 09007KT 01/M04 A3024 RMK A01 T00071038  RH  072%=      5-min Rain = 0
KONS 200200Z 09007KT 01/M04 A3025 RMK A01 T00081038  RH  072%=      5-min Rain = 0
KONS 200205Z 10007KT 01/M04 A3024 RMK A01 T00081039  RH  071%=      5-min Rain = 0
KONS 200210Z 10006KT 01/M04 A3025 RMK A01 T00091038  RH  072%=      5-min Rain = 0
KONS 200215Z 11006KT 01/M04 A3026 RMK A01 T00101039  RH  071%=      5-min Rain = 0
KONS 200220Z 11006KT 01/M04 A3026 RMK A01 T00081040  RH  071%=      5-min Rain = 0
KONS 200225Z 10006KT 01/M04 A3026 RMK A01 T00091039  RH  071%=      5-min Rain = 0
KONS 200230Z 10006KT 01/M04 A3027 RMK A01 T00101040  RH  070%=      5-min Rain = 0
KONS 200235Z 11006KT 01/M04 A3027 RMK A01 T00101040  RH  070%=      5-min Rain = 0
KONS 200240Z 10006KT 01/M04 A3027 RMK A01 T00121040  RH  069%=      5-min Rain = 0
KONS 200245Z 10007KT 01/M04 A3026 RMK A01 T00131041  RH  068%=      5-min Rain = 0
KONS 200250Z 11007KT 01/M04 A3026 RMK A01 T00101043  RH  069%=      5-min Rain = 0
KONS 200255Z 12007KT 01/M05 A3026 RMK A01 T00071045  RH  069%=      5-min Rain = 0
KONS 200300Z 12007KT 00/M05 A3026 RMK A01 T00031046  RH  070%=      5-min Rain = 0
KONS 200305Z 10006KT 00/M04 A3026 RMK A01 T00031044  RH  071%=      5-min Rain = 0
KONS 200310Z 11008KT 00/M04 A3025 RMK A01 T00031044  RH  071%=      5-min Rain = 0
KONS 200315Z 11008KT 01/M05 A3025 RMK A01 T00051045  RH  070%=      5-min Rain = 0
KONS 200320Z 12008KT 00/M05 A3025 RMK A01 T00011048  RH  070%=      5-min Rain = 0
KONS 200325Z 13008KT M01/M05 A3025 RMK A01 T10071053  RH  072%=      5-min Rain = 0
KONS 200330Z 13007KT M01/M05 A3025 RMK A01 T10101050  RH  075%=      5-min Rain = 0
KONS 200335Z 13008KT M01/M05 A3025 RMK A01 T10091049  RH  075%=      5-min Rain = 0
KONS 200340Z 13008KT M01/M05 A3025 RMK A01 T10091049  RH  075%=      5-min Rain = 0
KONS 200345Z 13008KT M01/M05 A3025 RMK A01 T10091048  RH  075%=      5-min Rain = 0
KONS 200350Z 14007KT M01/M05 A3026 RMK A01 T10091050  RH  075%=      5-min Rain = 0
KONS 200355Z 14007KT M01/M05 A3025 RMK A01 T10101051  RH  075%=      5-min Rain = 0
KONS 200400Z 13007KT M01/M05 A3026 RMK A01 T10131053  RH  075%=      5-min Rain = 0
KONS 200405Z 13007KT M01/M05 A3025 RMK A01 T10141052  RH  076%=      5-min Rain = 0
KONS 200410Z 13007KT M01/M05 A3026 RMK A01 T10141052  RH  076%=      5-min Rain = 0
KONS 200415Z 14008KT M01/M05 A3026 RMK A01 T10131053  RH  076%=      5-min Rain = 0
KONS 200420Z 14007KT M02/M05 A3025 RMK A01 T10161054  RH  076%=      5-min Rain = 0
KONS 200425Z 14007KT M02/M05 A3025 RMK A01 T10151052  RH  077%=      5-min Rain = 0
KONS 200430Z 14007KT M02/M05 A3025 RMK A01 T10161054  RH  076%=      5-min Rain = 0
KONS 200435Z 14007KT M02/M06 A3025 RMK A01 T10171055  RH  076%=      5-min Rain = 0
KONS 200440Z 14007KT M02/M05 A3026 RMK A01 T10171054  RH  077%=      5-min Rain = 0
KONS 200445Z 14007KT M02/M05 A3026 RMK A01 T10161054  RH  076%=      5-min Rain = 0
KONS 200450Z 13006KT M02/M05 A3026 RMK A01 T10171054  RH  076%=      5-min Rain = 0
KONS 200455Z 14007KT M01/M05 A3026 RMK A01 T10141053  RH  076%=      5-min Rain = 0
KONS 200500Z 15007KT M02/M06 A3026 RMK A01 T10151056  RH  075%=      5-min Rain = 0
KONS 200505Z 15008KT M02/M06 A3025 RMK A01 T10181057  RH  075%=      5-min Rain = 0
KONS 200510Z 15008KT M02/M06 A3025 RMK A01 T10191057  RH  076%=      5-min Rain = 0
KONS 200515Z 15008KT M02/M06 A3026 RMK A01 T10221058  RH  077%=      5-min Rain = 0
KONS 200520Z 16007KT M02/M06 A3026 RMK A01 T10211056  RH  078%=      5-min Rain = 0
KONS 200525Z 16009KT M02/M06 A3026 RMK A01 T10221056  RH  078%=      5-min Rain = 0
KONS 200530Z 16008KT M02/M06 A3026 RMK A01 T10211055  RH  078%=      5-min Rain = 0
KONS 200535Z 16007KT M02/M06 A3026 RMK A01 T10221057  RH  078%=      5-min Rain = 0
KONS 200540Z 17007KT M02/M06 A3026 RMK A01 T10241059  RH  078%=      5-min Rain = 0
KONS 200545Z 17008KT M03/M06 A3026 RMK A01 T10271059  RH  079%=      5-min Rain = 0
KONS 200550Z 17008KT M02/M05 A3026 RMK A01 T10231054  RH  080%=      5-min Rain = 0
KONS 200555Z 18007KT M02/M06 A3027 RMK A01 T10241058  RH  078%=      5-min Rain = 0
KONS 200600Z 17008KT M03/M06 A3027 RMK A01 T10281060  RH  080%=      5-min Rain = 0

Page generated in 0.0095 seconds.